sensor_id;sensor_type;location;lat;lon;timestamp;P1;durP1;ratioP1;P2;durP2;ratioP2
38591;SDS011;24356;48.460;11.450;2022-11-20T00:00:25;4.63;;;3.15;;
38591;SDS011;24356;48.460;11.450;2022-11-20T00:02:51;5.75;;;3.25;;
38591;SDS011;24356;48.460;11.450;2022-11-20T00:05:16;14.68;;;7.40;;
38591;SDS011;24356;48.460;11.450;2022-11-20T00:07:43;12.35;;;5.80;;
38591;SDS011;24356;48.460;11.450;2022-11-20T00:10:09;9.35;;;5.65;;
38591;SDS011;24356;48.460;11.450;2022-11-20T00:12:34;41.95;;;14.63;;
38591;SDS011;24356;48.460;11.450;2022-11-20T00:15:00;20.98;;;8.52;;
38591;SDS011;24356;48.460;11.450;2022-11-20T00:17:26;14.85;;;8.25;;
38591;SDS011;24356;48.460;11.450;2022-11-20T00:19:51;12.75;;;6.07;;
38591;SDS011;24356;48.460;11.450;2022-11-20T00:22:17;5.97;;;4.22;;
38591;SDS011;24356;48.460;11.450;2022-11-20T00:24:42;8.45;;;5.28;;
38591;SDS011;24356;48.460;11.450;2022-11-20T00:27:08;9.43;;;5.25;;
38591;SDS011;24356;48.460;11.450;2022-11-20T00:29:34;8.85;;;5.30;;
38591;SDS011;24356;48.460;11.450;2022-11-20T00:31:59;7.85;;;4.80;;
38591;SDS011;24356;48.460;11.450;2022-11-20T00:34:25;8.15;;;5.32;;
38591;SDS011;24356;48.460;11.450;2022-11-20T00:36:52;9.43;;;5.10;;
38591;SDS011;24356;48.460;11.450;2022-11-20T00:39:18;11.27;;;5.50;;
38591;SDS011;24356;48.460;11.450;2022-11-20T00:41:44;9.93;;;5.25;;
38591;SDS011;24356;48.460;11.450;2022-11-20T00:44:10;10.40;;;5.43;;
38591;SDS011;24356;48.460;11.450;2022-11-20T00:46:35;12.25;;;5.75;;
38591;SDS011;24356;48.460;11.450;2022-11-20T00:49:01;8.48;;;5.53;;
38591;SDS011;24356;48.460;11.450;2022-11-20T00:51:27;9.63;;;5.75;;
38591;SDS011;24356;48.460;11.450;2022-11-20T00:53:57;10.18;;;6.07;;
38591;SDS011;24356;48.460;11.450;2022-11-20T00:56:23;9.40;;;5.40;;
38591;SDS011;24356;48.460;11.450;2022-11-20T00:58:48;10.05;;;5.95;;
38591;SDS011;24356;48.460;11.450;2022-11-20T01:01:15;11.43;;;5.55;;
38591;SDS011;24356;48.460;11.450;2022-11-20T01:03:47;8.90;;;5.85;;
38591;SDS011;24356;48.460;11.450;2022-11-20T01:06:15;11.48;;;6.25;;
38591;SDS011;24356;48.460;11.450;2022-11-20T01:08:42;9.85;;;6.55;;
38591;SDS011;24356;48.460;11.450;2022-11-20T01:11:09;12.68;;;6.03;;
38591;SDS011;24356;48.460;11.450;2022-11-20T01:13:36;8.77;;;5.28;;
38591;SDS011;24356;48.460;11.450;2022-11-20T01:16:04;8.60;;;5.80;;
38591;SDS011;24356;48.460;11.450;2022-11-20T01:18:35;11.48;;;5.85;;
38591;SDS011;24356;48.460;11.450;2022-11-20T01:21:06;11.48;;;5.88;;
38591;SDS011;24356;48.460;11.450;2022-11-20T01:23:35;8.98;;;5.97;;
38591;SDS011;24356;48.460;11.450;2022-11-20T01:26:03;11.23;;;6.32;;
38591;SDS011;24356;48.460;11.450;2022-11-20T01:28:30;10.70;;;6.47;;
38591;SDS011;24356;48.460;11.450;2022-11-20T01:33:26;10.32;;;6.05;;
38591;SDS011;24356;48.460;11.450;2022-11-20T01:35:52;9.77;;;5.78;;
38591;SDS011;24356;48.460;11.450;2022-11-20T01:38:18;9.75;;;5.85;;
38591;SDS011;24356;48.460;11.450;2022-11-20T01:40:45;12.27;;;5.78;;
38591;SDS011;24356;48.460;11.450;2022-11-20T01:43:19;10.07;;;6.07;;
38591;SDS011;24356;48.460;11.450;2022-11-20T01:48:34;10.73;;;5.53;;
38591;SDS011;24356;48.460;11.450;2022-11-20T01:51:03;8.45;;;5.47;;
38591;SDS011;24356;48.460;11.450;2022-11-20T01:53:32;8.65;;;5.63;;
38591;SDS011;24356;48.460;11.450;2022-11-20T01:56:01;11.48;;;5.70;;
38591;SDS011;24356;48.460;11.450;2022-11-20T01:58:32;10.75;;;5.63;;
38591;SDS011;24356;48.460;11.450;2022-11-20T02:01:00;10.07;;;5.88;;
38591;SDS011;24356;48.460;11.450;2022-11-20T02:03:26;9.20;;;5.60;;
38591;SDS011;24356;48.460;11.450;2022-11-20T02:05:57;7.80;;;5.15;;
38591;SDS011;24356;48.460;11.450;2022-11-20T02:08:39;7.72;;;5.18;;
38591;SDS011;24356;48.460;11.450;2022-11-20T02:11:05;9.27;;;5.28;;
38591;SDS011;24356;48.460;11.450;2022-11-20T02:13:31;8.32;;;5.00;;
38591;SDS011;24356;48.460;11.450;2022-11-20T02:16:12;7.32;;;5.15;;
38591;SDS011;24356;48.460;11.450;2022-11-20T02:18:40;8.30;;;4.93;;
38591;SDS011;24356;48.460;11.450;2022-11-20T02:21:09;11.88;;;5.85;;
38591;SDS011;24356;48.460;11.450;2022-11-20T02:23:38;8.75;;;5.40;;
38591;SDS011;24356;48.460;11.450;2022-11-20T02:26:06;10.48;;;5.30;;
38591;SDS011;24356;48.460;11.450;2022-11-20T02:28:36;8.88;;;5.90;;
38591;SDS011;24356;48.460;11.450;2022-11-20T02:31:02;8.95;;;5.00;;
38591;SDS011;24356;48.460;11.450;2022-11-20T02:33:28;10.95;;;4.97;;
38591;SDS011;24356;48.460;11.450;2022-11-20T02:35:53;10.65;;;5.10;;
38591;SDS011;24356;48.460;11.450;2022-11-20T02:38:19;8.23;;;5.07;;
38591;SDS011;24356;48.460;11.450;2022-11-20T02:40:45;8.40;;;5.28;;
38591;SDS011;24356;48.460;11.450;2022-11-20T02:43:11;7.95;;;4.68;;
38591;SDS011;24356;48.460;11.450;2022-11-20T02:45:37;6.90;;;4.63;;
38591;SDS011;24356;48.460;11.450;2022-11-20T02:48:03;8.80;;;4.82;;
38591;SDS011;24356;48.460;11.450;2022-11-20T02:50:30;7.28;;;5.13;;
38591;SDS011;24356;48.460;11.450;2022-11-20T02:52:56;8.40;;;4.75;;
38591;SDS011;24356;48.460;11.450;2022-11-20T02:55:21;7.68;;;5.15;;
38591;SDS011;24356;48.460;11.450;2022-11-20T02:57:47;8.75;;;4.75;;
38591;SDS011;24356;48.460;11.450;2022-11-20T03:00:13;7.75;;;5.05;;
38591;SDS011;24356;48.460;11.450;2022-11-20T03:02:39;11.65;;;5.82;;
38591;SDS011;24356;48.460;11.450;2022-11-20T03:05:04;8.63;;;5.30;;
38591;SDS011;24356;48.460;11.450;2022-11-20T03:07:30;8.57;;;5.55;;
38591;SDS011;24356;48.460;11.450;2022-11-20T03:09:56;9.98;;;5.75;;
38591;SDS011;24356;48.460;11.450;2022-11-20T03:12:21;9.98;;;5.43;;
38591;SDS011;24356;48.460;11.450;2022-11-20T03:14:47;10.00;;;5.30;;
38591;SDS011;24356;48.460;11.450;2022-11-20T03:17:12;7.32;;;4.78;;
38591;SDS011;24356;48.460;11.450;2022-11-20T03:19:38;10.15;;;5.18;;
38591;SDS011;24356;48.460;11.450;2022-11-20T03:22:03;6.65;;;4.63;;
38591;SDS011;24356;48.460;11.450;2022-11-20T03:24:29;7.78;;;5.00;;
38591;SDS011;24356;48.460;11.450;2022-11-20T03:26:55;7.10;;;4.65;;
38591;SDS011;24356;48.460;11.450;2022-11-20T03:29:20;8.45;;;4.90;;
38591;SDS011;24356;48.460;11.450;2022-11-20T03:31:46;9.32;;;5.28;;
38591;SDS011;24356;48.460;11.450;2022-11-20T03:34:11;7.35;;;4.43;;
38591;SDS011;24356;48.460;11.450;2022-11-20T03:36:40;7.57;;;5.05;;
38591;SDS011;24356;48.460;11.450;2022-11-20T03:39:07;8.18;;;5.28;;
38591;SDS011;24356;48.460;11.450;2022-11-20T03:41:37;9.57;;;4.93;;
38591;SDS011;24356;48.460;11.450;2022-11-20T03:44:04;8.57;;;4.68;;
38591;SDS011;24356;48.460;11.450;2022-11-20T03:46:31;7.40;;;4.43;;
38591;SDS011;24356;48.460;11.450;2022-11-20T03:48:57;8.32;;;4.78;;
38591;SDS011;24356;48.460;11.450;2022-11-20T03:53:51;9.63;;;4.88;;
38591;SDS011;24356;48.460;11.450;2022-11-20T03:56:20;10.57;;;5.03;;
38591;SDS011;24356;48.460;11.450;2022-11-20T03:58:48;8.27;;;4.90;;
38591;SDS011;24356;48.460;11.450;2022-11-20T04:01:15;7.15;;;4.53;;
38591;SDS011;24356;48.460;11.450;2022-11-20T04:03:42;7.43;;;4.38;;
38591;SDS011;24356;48.460;11.450;2022-11-20T04:06:12;8.93;;;4.75;;
38591;SDS011;24356;48.460;11.450;2022-11-20T04:08:43;9.10;;;4.95;;
38591;SDS011;24356;48.460;11.450;2022-11-20T04:13:40;10.10;;;4.47;;
38591;SDS011;24356;48.460;11.450;2022-11-20T04:16:06;8.20;;;4.93;;
38591;SDS011;24356;48.460;11.450;2022-11-20T04:18:33;7.95;;;4.70;;
38591;SDS011;24356;48.460;11.450;2022-11-20T04:21:01;6.10;;;4.32;;
38591;SDS011;24356;48.460;11.450;2022-11-20T04:23:27;7.13;;;4.50;;
38591;SDS011;24356;48.460;11.450;2022-11-20T04:25:53;6.85;;;4.55;;
38591;SDS011;24356;48.460;11.450;2022-11-20T04:28:19;7.10;;;4.47;;
38591;SDS011;24356;48.460;11.450;2022-11-20T04:30:45;7.07;;;4.38;;
38591;SDS011;24356;48.460;11.450;2022-11-20T04:33:11;8.60;;;4.72;;
38591;SDS011;24356;48.460;11.450;2022-11-20T04:35:38;7.05;;;4.30;;
38591;SDS011;24356;48.460;11.450;2022-11-20T04:38:03;7.28;;;4.57;;
38591;SDS011;24356;48.460;11.450;2022-11-20T04:40:29;8.40;;;4.07;;
38591;SDS011;24356;48.460;11.450;2022-11-20T04:42:55;8.93;;;4.28;;
38591;SDS011;24356;48.460;11.450;2022-11-20T04:45:22;8.35;;;4.28;;
38591;SDS011;24356;48.460;11.450;2022-11-20T04:47:48;6.28;;;3.97;;
38591;SDS011;24356;48.460;11.450;2022-11-20T04:50:14;6.80;;;4.32;;
38591;SDS011;24356;48.460;11.450;2022-11-20T04:52:39;6.93;;;3.90;;
38591;SDS011;24356;48.460;11.450;2022-11-20T04:55:05;9.52;;;4.50;;
38591;SDS011;24356;48.460;11.450;2022-11-20T04:57:31;4.88;;;3.72;;
38591;SDS011;24356;48.460;11.450;2022-11-20T04:59:56;5.93;;;4.00;;
38591;SDS011;24356;48.460;11.450;2022-11-20T05:02:22;6.97;;;3.53;;
38591;SDS011;24356;48.460;11.450;2022-11-20T05:04:48;6.95;;;4.25;;
38591;SDS011;24356;48.460;11.450;2022-11-20T05:07:14;6.95;;;4.30;;
38591;SDS011;24356;48.460;11.450;2022-11-20T05:09:39;9.68;;;4.40;;
38591;SDS011;24356;48.460;11.450;2022-11-20T05:12:06;5.63;;;3.90;;
38591;SDS011;24356;48.460;11.450;2022-11-20T05:14:32;6.05;;;3.60;;
38591;SDS011;24356;48.460;11.450;2022-11-20T05:16:58;6.18;;;3.90;;
38591;SDS011;24356;48.460;11.450;2022-11-20T05:19:24;6.38;;;4.25;;
38591;SDS011;24356;48.460;11.450;2022-11-20T05:21:49;7.60;;;4.10;;
38591;SDS011;24356;48.460;11.450;2022-11-20T05:24:15;8.40;;;4.20;;
38591;SDS011;24356;48.460;11.450;2022-11-20T05:26:41;5.90;;;4.20;;
38591;SDS011;24356;48.460;11.450;2022-11-20T05:29:06;5.70;;;4.05;;
38591;SDS011;24356;48.460;11.450;2022-11-20T05:31:35;6.22;;;4.20;;
38591;SDS011;24356;48.460;11.450;2022-11-20T05:34:02;8.02;;;4.40;;
38591;SDS011;24356;48.460;11.450;2022-11-20T05:36:27;7.78;;;4.20;;
38591;SDS011;24356;48.460;11.450;2022-11-20T05:38:54;6.95;;;4.20;;
38591;SDS011;24356;48.460;11.450;2022-11-20T05:41:20;8.32;;;4.32;;
38591;SDS011;24356;48.460;11.450;2022-11-20T05:43:47;6.10;;;3.83;;
38591;SDS011;24356;48.460;11.450;2022-11-20T05:46:14;6.30;;;4.10;;
38591;SDS011;24356;48.460;11.450;2022-11-20T05:48:42;5.47;;;3.63;;
38591;SDS011;24356;48.460;11.450;2022-11-20T05:51:09;6.20;;;4.13;;
38591;SDS011;24356;48.460;11.450;2022-11-20T05:53:36;5.53;;;3.80;;
38591;SDS011;24356;48.460;11.450;2022-11-20T05:56:12;6.47;;;3.80;;
38591;SDS011;24356;48.460;11.450;2022-11-20T05:58:39;6.25;;;3.55;;
38591;SDS011;24356;48.460;11.450;2022-11-20T06:01:09;5.82;;;3.78;;
38591;SDS011;24356;48.460;11.450;2022-11-20T06:03:46;9.52;;;4.25;;
38591;SDS011;24356;48.460;11.450;2022-11-20T06:06:12;10.10;;;5.47;;
38591;SDS011;24356;48.460;11.450;2022-11-20T06:08:39;8.30;;;4.70;;
38591;SDS011;24356;48.460;11.450;2022-11-20T06:11:06;12.20;;;5.97;;
38591;SDS011;24356;48.460;11.450;2022-11-20T06:13:33;10.27;;;5.30;;
38591;SDS011;24356;48.460;11.450;2022-11-20T06:15:59;10.43;;;5.57;;
38591;SDS011;24356;48.460;11.450;2022-11-20T06:18:25;9.23;;;5.00;;
38591;SDS011;24356;48.460;11.450;2022-11-20T06:20:58;10.70;;;5.90;;
38591;SDS011;24356;48.460;11.450;2022-11-20T06:23:25;7.90;;;4.55;;
38591;SDS011;24356;48.460;11.450;2022-11-20T06:25:53;11.50;;;5.75;;
38591;SDS011;24356;48.460;11.450;2022-11-20T06:28:19;8.38;;;5.05;;
38591;SDS011;24356;48.460;11.450;2022-11-20T06:30:45;10.05;;;5.72;;
38591;SDS011;24356;48.460;11.450;2022-11-20T06:33:10;8.18;;;5.00;;
38591;SDS011;24356;48.460;11.450;2022-11-20T06:35:37;9.88;;;5.20;;
38591;SDS011;24356;48.460;11.450;2022-11-20T06:38:02;13.60;;;5.95;;
38591;SDS011;24356;48.460;11.450;2022-11-20T06:40:28;9.18;;;4.82;;
38591;SDS011;24356;48.460;11.450;2022-11-20T06:42:54;9.50;;;5.00;;
38591;SDS011;24356;48.460;11.450;2022-11-20T06:45:20;8.02;;;4.28;;
38591;SDS011;24356;48.460;11.450;2022-11-20T06:47:46;8.60;;;4.20;;
38591;SDS011;24356;48.460;11.450;2022-11-20T06:50:12;9.75;;;5.35;;
38591;SDS011;24356;48.460;11.450;2022-11-20T06:52:38;8.85;;;4.50;;
38591;SDS011;24356;48.460;11.450;2022-11-20T06:55:03;6.15;;;4.07;;
38591;SDS011;24356;48.460;11.450;2022-11-20T06:57:29;6.28;;;4.00;;
38591;SDS011;24356;48.460;11.450;2022-11-20T06:59:55;8.00;;;4.07;;
38591;SDS011;24356;48.460;11.450;2022-11-20T07:02:20;5.32;;;3.80;;
38591;SDS011;24356;48.460;11.450;2022-11-20T07:04:46;5.10;;;3.63;;
38591;SDS011;24356;48.460;11.450;2022-11-20T07:07:12;5.32;;;3.85;;
38591;SDS011;24356;48.460;11.450;2022-11-20T07:09:37;6.28;;;3.88;;
38591;SDS011;24356;48.460;11.450;2022-11-20T07:12:03;4.70;;;3.50;;
38591;SDS011;24356;48.460;11.450;2022-11-20T07:14:28;4.97;;;3.42;;
38591;SDS011;24356;48.460;11.450;2022-11-20T07:16:54;7.15;;;4.38;;
38591;SDS011;24356;48.460;11.450;2022-11-20T07:19:20;5.50;;;3.88;;
38591;SDS011;24356;48.460;11.450;2022-11-20T07:21:45;6.57;;;3.65;;
38591;SDS011;24356;48.460;11.450;2022-11-20T07:24:11;6.45;;;3.30;;
38591;SDS011;24356;48.460;11.450;2022-11-20T07:26:37;8.45;;;4.47;;
38591;SDS011;24356;48.460;11.450;2022-11-20T07:29:02;5.00;;;3.67;;
38591;SDS011;24356;48.460;11.450;2022-11-20T07:31:28;5.47;;;3.47;;
38591;SDS011;24356;48.460;11.450;2022-11-20T07:33:54;5.57;;;3.80;;
38591;SDS011;24356;48.460;11.450;2022-11-20T07:36:19;4.57;;;3.28;;
38591;SDS011;24356;48.460;11.450;2022-11-20T07:38:45;6.20;;;3.53;;
38591;SDS011;24356;48.460;11.450;2022-11-20T07:41:12;5.95;;;3.75;;
38591;SDS011;24356;48.460;11.450;2022-11-20T07:43:37;5.25;;;3.40;;
38591;SDS011;24356;48.460;11.450;2022-11-20T07:46:03;7.25;;;4.50;;
38591;SDS011;24356;48.460;11.450;2022-11-20T07:48:29;5.35;;;3.67;;
38591;SDS011;24356;48.460;11.450;2022-11-20T07:50:55;6.30;;;3.63;;
38591;SDS011;24356;48.460;11.450;2022-11-20T07:53:21;5.03;;;3.53;;
38591;SDS011;24356;48.460;11.450;2022-11-20T07:55:47;4.78;;;3.15;;
38591;SDS011;24356;48.460;11.450;2022-11-20T07:58:13;5.03;;;3.80;;
38591;SDS011;24356;48.460;11.450;2022-11-20T08:00:39;6.45;;;3.80;;
38591;SDS011;24356;48.460;11.450;2022-11-20T08:03:05;5.75;;;3.45;;
38591;SDS011;24356;48.460;11.450;2022-11-20T08:05:31;4.68;;;3.03;;
38591;SDS011;24356;48.460;11.450;2022-11-20T08:07:57;5.70;;;3.20;;
38591;SDS011;24356;48.460;11.450;2022-11-20T08:10:23;6.03;;;3.60;;
38591;SDS011;24356;48.460;11.450;2022-11-20T08:12:50;7.20;;;3.65;;
38591;SDS011;24356;48.460;11.450;2022-11-20T08:15:52;5.75;;;3.30;;
38591;SDS011;24356;48.460;11.450;2022-11-20T08:18:17;5.43;;;4.05;;
38591;SDS011;24356;48.460;11.450;2022-11-20T08:20:43;5.45;;;3.42;;
38591;SDS011;24356;48.460;11.450;2022-11-20T08:23:09;6.15;;;3.45;;
38591;SDS011;24356;48.460;11.450;2022-11-20T08:25:35;4.45;;;3.30;;
38591;SDS011;24356;48.460;11.450;2022-11-20T08:28:06;4.97;;;3.30;;
38591;SDS011;24356;48.460;11.450;2022-11-20T08:30:34;5.55;;;3.60;;
38591;SDS011;24356;48.460;11.450;2022-11-20T08:33:01;4.65;;;3.20;;
38591;SDS011;24356;48.460;11.450;2022-11-20T08:35:32;6.30;;;3.53;;
38591;SDS011;24356;48.460;11.450;2022-11-20T08:37:58;5.63;;;3.47;;
38591;SDS011;24356;48.460;11.450;2022-11-20T08:40:24;4.30;;;3.30;;
38591;SDS011;24356;48.460;11.450;2022-11-20T08:42:50;5.47;;;3.50;;
38591;SDS011;24356;48.460;11.450;2022-11-20T08:45:16;5.55;;;3.60;;
38591;SDS011;24356;48.460;11.450;2022-11-20T08:47:42;4.22;;;3.60;;
38591;SDS011;24356;48.460;11.450;2022-11-20T08:50:09;5.50;;;3.53;;
38591;SDS011;24356;48.460;11.450;2022-11-20T08:52:35;5.20;;;3.65;;
38591;SDS011;24356;48.460;11.450;2022-11-20T08:55:01;4.88;;;3.35;;
38591;SDS011;24356;48.460;11.450;2022-11-20T08:57:27;6.80;;;3.50;;
38591;SDS011;24356;48.460;11.450;2022-11-20T08:59:53;6.10;;;3.38;;
38591;SDS011;24356;48.460;11.450;2022-11-20T09:02:20;7.65;;;3.25;;
38591;SDS011;24356;48.460;11.450;2022-11-20T09:04:45;4.78;;;3.25;;
38591;SDS011;24356;48.460;11.450;2022-11-20T09:07:11;5.03;;;3.13;;
38591;SDS011;24356;48.460;11.450;2022-11-20T09:09:37;4.20;;;3.10;;
38591;SDS011;24356;48.460;11.450;2022-11-20T09:12:02;5.18;;;3.38;;
38591;SDS011;24356;48.460;11.450;2022-11-20T09:14:28;5.95;;;3.92;;
38591;SDS011;24356;48.460;11.450;2022-11-20T09:16:55;5.65;;;3.25;;
38591;SDS011;24356;48.460;11.450;2022-11-20T09:19:21;5.78;;;3.40;;
38591;SDS011;24356;48.460;11.450;2022-11-20T09:21:49;6.05;;;3.42;;
38591;SDS011;24356;48.460;11.450;2022-11-20T09:24:14;7.40;;;3.67;;
38591;SDS011;24356;48.460;11.450;2022-11-20T09:26:40;7.30;;;3.72;;
38591;SDS011;24356;48.460;11.450;2022-11-20T09:29:06;6.43;;;3.90;;
38591;SDS011;24356;48.460;11.450;2022-11-20T09:31:31;6.50;;;3.75;;
38591;SDS011;24356;48.460;11.450;2022-11-20T09:33:57;6.25;;;4.03;;
38591;SDS011;24356;48.460;11.450;2022-11-20T09:36:23;4.68;;;3.25;;
38591;SDS011;24356;48.460;11.450;2022-11-20T09:38:48;5.22;;;3.30;;
38591;SDS011;24356;48.460;11.450;2022-11-20T09:49:37;5.00;;;2.97;;
38591;SDS011;24356;48.460;11.450;2022-11-20T09:52:32;5.15;;;3.53;;
38591;SDS011;24356;48.460;11.450;2022-11-20T09:55:20;6.82;;;4.07;;
38591;SDS011;24356;48.460;11.450;2022-11-20T09:57:47;6.53;;;3.53;;
38591;SDS011;24356;48.460;11.450;2022-11-20T10:00:16;5.47;;;3.22;;
38591;SDS011;24356;48.460;11.450;2022-11-20T10:08:28;4.45;;;3.42;;
38591;SDS011;24356;48.460;11.450;2022-11-20T10:11:05;5.05;;;3.40;;
38591;SDS011;24356;48.460;11.450;2022-11-20T10:16:39;5.75;;;3.38;;
38591;SDS011;24356;48.460;11.450;2022-11-20T10:22:14;4.22;;;3.10;;
38591;SDS011;24356;48.460;11.450;2022-11-20T10:27:37;6.55;;;3.10;;
38591;SDS011;24356;48.460;11.450;2022-11-20T10:30:24;3.80;;;2.72;;
38591;SDS011;24356;48.460;11.450;2022-11-20T10:33:03;4.65;;;3.05;;
38591;SDS011;24356;48.460;11.450;2022-11-20T10:35:48;4.65;;;2.80;;
38591;SDS011;24356;48.460;11.450;2022-11-20T10:38:21;3.28;;;2.42;;
38591;SDS011;24356;48.460;11.450;2022-11-20T10:40:57;3.97;;;2.83;;
38591;SDS011;24356;48.460;11.450;2022-11-20T10:43:45;3.90;;;2.47;;
38591;SDS011;24356;48.460;11.450;2022-11-20T10:46:15;4.25;;;2.20;;
38591;SDS011;24356;48.460;11.450;2022-11-20T10:48:45;2.70;;;2.27;;
38591;SDS011;24356;48.460;11.450;2022-11-20T10:56:44;6.32;;;2.33;;
38591;SDS011;24356;48.460;11.450;2022-11-20T11:02:24;5.00;;;2.40;;
38591;SDS011;24356;48.460;11.450;2022-11-20T11:04:58;4.43;;;1.90;;
38591;SDS011;24356;48.460;11.450;2022-11-20T11:07:46;2.88;;;1.90;;
38591;SDS011;24356;48.460;11.450;2022-11-20T11:13:24;3.95;;;2.20;;
38591;SDS011;24356;48.460;11.450;2022-11-20T11:15:52;3.97;;;2.08;;
38591;SDS011;24356;48.460;11.450;2022-11-20T11:20:55;2.60;;;1.77;;
38591;SDS011;24356;48.460;11.450;2022-11-20T11:23:36;4.80;;;3.33;;
38591;SDS011;24356;48.460;11.450;2022-11-20T11:26:05;4.00;;;2.00;;
38591;SDS011;24356;48.460;11.450;2022-11-20T11:28:33;3.05;;;2.20;;
38591;SDS011;24356;48.460;11.450;2022-11-20T11:30:59;3.85;;;2.10;;
38591;SDS011;24356;48.460;11.450;2022-11-20T11:33:29;4.60;;;2.70;;
38591;SDS011;24356;48.460;11.450;2022-11-20T11:35:59;3.05;;;2.10;;
38591;SDS011;24356;48.460;11.450;2022-11-20T11:38:38;3.00;;;1.83;;
38591;SDS011;24356;48.460;11.450;2022-11-20T11:41:06;3.88;;;2.25;;
38591;SDS011;24356;48.460;11.450;2022-11-20T11:43:57;2.30;;;1.70;;
38591;SDS011;24356;48.460;11.450;2022-11-20T11:46:49;3.75;;;1.75;;
38591;SDS011;24356;48.460;11.450;2022-11-20T11:49:21;3.92;;;1.83;;
38591;SDS011;24356;48.460;11.450;2022-11-20T11:51:56;2.05;;;1.83;;
38591;SDS011;24356;48.460;11.450;2022-11-20T11:57:28;1.95;;;1.67;;
38591;SDS011;24356;48.460;11.450;2022-11-20T12:05:16;3.15;;;1.70;;
38591;SDS011;24356;48.460;11.450;2022-11-20T12:07:58;1.90;;;1.58;;
38591;SDS011;24356;48.460;11.450;2022-11-20T12:15:40;3.90;;;2.10;;
38591;SDS011;24356;48.460;11.450;2022-11-20T12:18:14;3.80;;;1.88;;
38591;SDS011;24356;48.460;11.450;2022-11-20T12:23:26;6.68;;;4.85;;
38591;SDS011;24356;48.460;11.450;2022-11-20T12:26:10;3.63;;;2.78;;
38591;SDS011;24356;48.460;11.450;2022-11-20T12:28:52;9.50;;;5.07;;
38591;SDS011;24356;48.460;11.450;2022-11-20T12:31:36;4.20;;;2.70;;
38591;SDS011;24356;48.460;11.450;2022-11-20T12:40:12;5.05;;;2.70;;
38591;SDS011;24356;48.460;11.450;2022-11-20T12:43:18;5.13;;;4.10;;
38591;SDS011;24356;48.460;11.450;2022-11-20T12:46:11;5.03;;;2.38;;
38591;SDS011;24356;48.460;11.450;2022-11-20T12:48:52;4.68;;;3.50;;
38591;SDS011;24356;48.460;11.450;2022-11-20T13:02:02;7.60;;;5.25;;
38591;SDS011;24356;48.460;11.450;2022-11-20T13:07:23;7.35;;;5.05;;
38591;SDS011;24356;48.460;11.450;2022-11-20T13:09:49;3.97;;;2.75;;
38591;SDS011;24356;48.460;11.450;2022-11-20T13:12:29;15.20;;;9.45;;
38591;SDS011;24356;48.460;11.450;2022-11-20T13:17:59;9.82;;;6.30;;
38591;SDS011;24356;48.460;11.450;2022-11-20T13:20:27;6.45;;;3.80;;
38591;SDS011;24356;48.460;11.450;2022-11-20T13:22:56;5.53;;;4.07;;
38591;SDS011;24356;48.460;11.450;2022-11-20T13:25:29;3.00;;;2.28;;
38591;SDS011;24356;48.460;11.450;2022-11-20T13:28:02;5.22;;;3.08;;
38591;SDS011;24356;48.460;11.450;2022-11-20T13:30:30;4.72;;;2.63;;
38591;SDS011;24356;48.460;11.450;2022-11-20T13:33:07;3.53;;;1.85;;
38591;SDS011;24356;48.460;11.450;2022-11-20T13:35:54;2.92;;;2.22;;
38591;SDS011;24356;48.460;11.450;2022-11-20T13:38:22;9.75;;;4.25;;
38591;SDS011;24356;48.460;11.450;2022-11-20T13:46:09;5.50;;;3.15;;
38591;SDS011;24356;48.460;11.450;2022-11-20T13:48:39;3.28;;;2.30;;
38591;SDS011;24356;48.460;11.450;2022-11-20T13:51:12;5.60;;;3.30;;
38591;SDS011;24356;48.460;11.450;2022-11-20T13:54:03;2.10;;;1.90;;
38591;SDS011;24356;48.460;11.450;2022-11-20T14:02:16;1.98;;;1.75;;
38591;SDS011;24356;48.460;11.450;2022-11-20T14:04:45;4.07;;;1.75;;
38591;SDS011;24356;48.460;11.450;2022-11-20T14:07:17;3.45;;;2.00;;
38591;SDS011;24356;48.460;11.450;2022-11-20T14:09:50;3.35;;;2.10;;
38591;SDS011;24356;48.460;11.450;2022-11-20T14:12:21;3.33;;;2.20;;
38591;SDS011;24356;48.460;11.450;2022-11-20T14:14:52;4.90;;;2.60;;
38591;SDS011;24356;48.460;11.450;2022-11-20T14:17:37;3.50;;;2.30;;
38591;SDS011;24356;48.460;11.450;2022-11-20T14:20:07;3.97;;;2.10;;
38591;SDS011;24356;48.460;11.450;2022-11-20T14:22:39;2.58;;;1.92;;
38591;SDS011;24356;48.460;11.450;2022-11-20T14:27:41;7.18;;;3.15;;
38591;SDS011;24356;48.460;11.450;2022-11-20T14:30:15;7.00;;;3.13;;
38591;SDS011;24356;48.460;11.450;2022-11-20T14:32:43;4.25;;;2.17;;
38591;SDS011;24356;48.460;11.450;2022-11-20T14:35:13;7.15;;;3.10;;
38591;SDS011;24356;48.460;11.450;2022-11-20T14:37:45;17.10;;;4.00;;
38591;SDS011;24356;48.460;11.450;2022-11-20T14:40:22;10.80;;;3.47;;
38591;SDS011;24356;48.460;11.450;2022-11-20T14:42:55;7.00;;;3.25;;
38591;SDS011;24356;48.460;11.450;2022-11-20T14:45:22;3.17;;;2.20;;
38591;SDS011;24356;48.460;11.450;2022-11-20T14:47:48;4.32;;;2.63;;
38591;SDS011;24356;48.460;11.450;2022-11-20T14:50:20;3.60;;;2.00;;
38591;SDS011;24356;48.460;11.450;2022-11-20T14:52:50;3.53;;;2.35;;
38591;SDS011;24356;48.460;11.450;2022-11-20T14:55:36;4.30;;;2.28;;
38591;SDS011;24356;48.460;11.450;2022-11-20T14:58:04;3.88;;;2.20;;
38591;SDS011;24356;48.460;11.450;2022-11-20T15:00:31;3.33;;;1.88;;
38591;SDS011;24356;48.460;11.450;2022-11-20T15:02:58;2.35;;;1.70;;
38591;SDS011;24356;48.460;11.450;2022-11-20T15:05:44;3.38;;;2.10;;
38591;SDS011;24356;48.460;11.450;2022-11-20T15:08:14;2.65;;;1.75;;
38591;SDS011;24356;48.460;11.450;2022-11-20T15:10:45;2.88;;;2.10;;
38591;SDS011;24356;48.460;11.450;2022-11-20T15:13:13;2.80;;;2.00;;
38591;SDS011;24356;48.460;11.450;2022-11-20T15:16:00;3.70;;;2.20;;
38591;SDS011;24356;48.460;11.450;2022-11-20T15:18:27;2.58;;;1.90;;
38591;SDS011;24356;48.460;11.450;2022-11-20T15:21:12;2.35;;;1.67;;
38591;SDS011;24356;48.460;11.450;2022-11-20T15:23:40;2.80;;;1.90;;
38591;SDS011;24356;48.460;11.450;2022-11-20T15:26:06;2.13;;;1.70;;
38591;SDS011;24356;48.460;11.450;2022-11-20T15:28:35;4.22;;;1.70;;
38591;SDS011;24356;48.460;11.450;2022-11-20T15:31:09;4.32;;;1.70;;
38591;SDS011;24356;48.460;11.450;2022-11-20T15:33:37;2.13;;;1.45;;
38591;SDS011;24356;48.460;11.450;2022-11-20T15:36:03;3.47;;;1.70;;
38591;SDS011;24356;48.460;11.450;2022-11-20T15:38:29;2.20;;;1.45;;
38591;SDS011;24356;48.460;11.450;2022-11-20T15:40:54;3.53;;;1.70;;
38591;SDS011;24356;48.460;11.450;2022-11-20T15:43:20;1.73;;;1.40;;
38591;SDS011;24356;48.460;11.450;2022-11-20T15:45:50;4.18;;;1.42;;
38591;SDS011;24356;48.460;11.450;2022-11-20T15:48:25;2.10;;;1.55;;
38591;SDS011;24356;48.460;11.450;2022-11-20T15:53:34;1.73;;;1.40;;
38591;SDS011;24356;48.460;11.450;2022-11-20T15:56:00;3.17;;;1.70;;
38591;SDS011;24356;48.460;11.450;2022-11-20T15:58:26;6.72;;;4.13;;
38591;SDS011;24356;48.460;11.450;2022-11-20T16:00:52;4.18;;;2.10;;
38591;SDS011;24356;48.460;11.450;2022-11-20T16:03:17;3.92;;;1.88;;
38591;SDS011;24356;48.460;11.450;2022-11-20T16:05:44;3.80;;;2.00;;
38591;SDS011;24356;48.460;11.450;2022-11-20T16:08:09;2.00;;;1.70;;
38591;SDS011;24356;48.460;11.450;2022-11-20T16:10:35;5.05;;;1.73;;
38591;SDS011;24356;48.460;11.450;2022-11-20T16:13:01;8.63;;;2.40;;
38591;SDS011;24356;48.460;11.450;2022-11-20T16:15:49;2.67;;;1.77;;
38591;SDS011;24356;48.460;11.450;2022-11-20T16:18:20;4.38;;;1.90;;
38591;SDS011;24356;48.460;11.450;2022-11-20T16:20:48;3.20;;;1.80;;
38591;SDS011;24356;48.460;11.450;2022-11-20T16:23:15;2.35;;;1.77;;
38591;SDS011;24356;48.460;11.450;2022-11-20T16:25:41;4.68;;;2.25;;